Flight Track Log - Related Links

Times and Time Zones

All times are in EST time to prevent confusion due to time zone crossing. See the FSR411 flight status page for this flight to view local times or setup timezone preferences in your user account.

Time Position Orientation Groundspeed Altitude Reporting Facility
EST Latitude Longitude Course Direction KTS MPH feet Rate Location/Type
Sun 12:14:11 PM 36.0767 -115.2506 302° West 205 236 7,100  Level Los Angeles Center
Sun 12:15:03 PM 36.1019 -115.3011 302° West 235 270 9,600 3,100 Climbing Los Angeles Center
Sun 12:15:11 PM 36.1142 -115.3047 347° North 253 291 10,200 3,243 Climbing Los Angeles Center
Sun 12:16:17 PM 36.1683 -115.2756 23° Northeast 269 310 13,600 3,422 Climbing Los Angeles Center
Sun 12:17:19 PM 36.2019 -115.1456 72° East 342 394 17,500 3,032 Climbing Los Angeles Center
Sun 12:19:23 PM 36.1981 -114.8569 81° East 413 475 23,000 2,530 Climbing Los Angeles Center
Sun 12:20:24 PM 36.1981 -114.7081 90° East 431 496 25,300 2,098 Climbing Los Angeles Center
Sun 12:21:26 PM 36.1950 -114.5497 91° East 454 522 27,300 1,727 Climbing Los Angeles Center
Sun 12:23:00 PM 36.1985 -114.2980 62° Northeast  Level FlightAware Approximate
Sun 12:23:42 PM 36.1942 -114.2169 62° Northeast 484 557 31,000  Level Los Angeles Center
Sun 12:24:44 PM 36.2569 -114.0333 67° East 479 551 33,200 1,935 Climbing Los Angeles Center
Sun 12:25:46 PM 36.3097 -113.8831 66° East 476 548 35,000 1,694 Climbing Los Angeles Center
Sun 12:26:48 PM 36.3692 -113.7028 68° East 473 544 36,700 1,306 Climbing Los Angeles Center
Sun 12:27:50 PM 36.4192 -113.5506 68° East 476 548 37,700 926 Climbing Los Angeles Center
Sun 12:29:04 PM 36.4681 -113.3978 68° East 476 548 38,800 1,015 Climbing Los Angeles Center
Sun 12:30:06 PM 36.5267 -113.2158 68° East 480 552 40,000 710 Climbing Los Angeles Center
Sun 12:32:10 PM 36.6342 -112.8817 68° East 479 551 41,000 228 Climbing Los Angeles Center
Sun 12:34:29 PM 36.7475 -112.5244 68° East 510 587 41,000  Level Denver Center
Sun 12:35:15 PM 36.7892 -112.3906 69° East 521 600 41,000  Level Los Angeles Center
Sun 12:36:17 PM 36.8417 -112.2239 68° East 521 600 41,000  Level Los Angeles Center
Sun 12:37:19 PM 36.8933 -112.0550 69° East 524 603 41,000  Level Los Angeles Center
Sun 12:38:21 PM 36.9558 -111.8542 69° East 520 598 41,000  Level Los Angeles Center
Sun 12:39:23 PM 37.0078 -111.6844 69° East 527 606 41,000  Level Los Angeles Center
Sun 12:40:41 PM 37.0683 -111.4814 69° East 524 603 41,000  Level Denver Center
Sun 12:41:43 PM 37.1319 -111.2772 69° East 525 604 41,000  Level Denver Center
Sun 12:42:45 PM 37.1819 -111.1078 70° East 521 600 41,000  Level Denver Center
Sun 12:43:47 PM 37.2331 -110.9383 69° East 523 602 41,000  Level Denver Center
Sun 12:44:49 PM 37.2828 -110.7697 70° East 519 597 41,000  Level Denver Center
Sun 12:45:52 PM 37.3333 -110.5997 69° East 520 598 41,000  Level Denver Center
Sun 12:46:54 PM 37.3831 -110.4297 70° East 520 598 41,000  Level Denver Center
Sun 12:47:56 PM 37.4431 -110.2244 70° East 523 602 41,000  Level Denver Center
Sun 12:48:58 PM 37.4908 -110.0569 70° East 521 600 41,000  Level Denver Center
Sun 12:50:00 PM 37.5386 -109.8928 70° East 521 600 41,000  Level Denver Center
Sun 12:51:02 PM 37.5933 -109.7000 70° East 522 601 41,000  Level Denver Center
Sun 12:53:06 PM 37.6933 -109.3442 70° East 517 595 41,000  Level Denver Center
Sun 12:54:08 PM 37.7397 -109.1800 70° East 517 595 41,000  Level Denver Center
Sun 12:55:10 PM 37.7939 -108.9872 70° East 520 598 41,000  Level Denver Center
Sun 12:57:14 PM 37.8714 -108.6161 76° East 526 605 41,000  Level Denver Center
Sun 12:58:16 PM 37.9050 -108.4414 76° East 530 610 41,000  Level Denver Center
Sun 12:59:18 PM 37.9447 -108.2392 76° East 530 610 41,000  Level Denver Center
Sun 01:02:25 PM 38.0522 -107.6861 75° East 532 612 41,000  Level Denver Center
Sun 01:03:27 PM 38.0911 -107.4825 76° East 536 617 41,000  Level Denver Center
Sun 01:04:29 PM 38.1247 -107.3039 76° East 541 623 41,000  Level Denver Center
Sun 01:05:31 PM 38.1569 -107.1347 76° East 544 626 41,000  Level Denver Center
Sun 01:06:33 PM 38.1986 -106.9081 77° East 548 631 41,000  Level Denver Center
Sun 01:07:35 PM 38.2297 -106.7358 77° East 543 625 41,000  Level Denver Center
Sun 01:08:37 PM 38.2669 -106.5247 77° East 548 631 41,000  Level Denver Center
Sun 01:10:41 PM 38.3350 -106.1422 78° East 542 624 41,000  Level Denver Center
Sun 01:11:43 PM 38.3664 -105.9636 77° East 539 620 41,000  Level Denver Center
Sun 01:13:47 PM 38.4317 -105.5836 79° East 531 611 41,000  Level Denver Center
Sun 01:14:49 PM 38.4628 -105.4014 78° East 528 608 41,000  Level Denver Center
Sun 01:15:51 PM 38.4931 -105.2181 78° East 532 612 41,000  Level Denver Center
Sun 01:16:53 PM 38.5303 -104.9961 78° East 535 616 41,000  Level Denver Center
Sun 01:17:56 PM 38.5600 -104.8192 78° East 520 598 41,000  Level Denver Center
Sun 01:18:58 PM 38.5889 -104.6408 78° East 517 595 41,000  Level Denver Center
Sun 01:21:02 PM 38.6542 -104.2328 78° East 540 621 41,000  Level Denver Center
Sun 01:22:04 PM 38.6831 -104.0456 79° East 545 627 41,000  Level Denver Center
Sun 01:23:06 PM 38.7117 -103.8611 79° East 546 628 41,000  Level Denver Center
Sun 01:25:29 PM 38.7803 -103.4003 79° East 552 635 41,000  Level Kansas City Center
Sun 01:26:12 PM 38.8067 -103.2364 78° East 556 640 41,000  Level Denver Center
Sun 01:27:14 PM 38.8358 -103.0431 79° East 556 640 41,000  Level Denver Center
Sun 01:29:37 PM 38.8992 -102.5889 80° East 559 643 41,000  Level Kansas City Center
Sun 01:30:20 PM 38.9242 -102.4314 78° East 559 643 41,000  Level Denver Center
Sun 01:31:22 PM 38.9500 -102.2419 80° East 562 647 41,000  Level Denver Center
Sun 01:32:25 PM 38.9806 -102.0203 80° East 565 650 41,000  Level Denver Center
Sun 01:33:27 PM 39.0064 -101.8306 80° East 564 649 41,000  Level Denver Center
Sun 01:34:29 PM 39.0369 -101.6094 80° East 561 646 41,000  Level Denver Center
Sun 01:36:52 PM 39.0956 -101.1653 80° East 557 641 41,000  Level Kansas City Center
Sun 01:37:54 PM 39.1242 -100.9450 80° East 555 639 41,000  Level Kansas City Center
Sun 01:38:56 PM 39.1489 -100.7553 80° East 558 642 41,000  Level Kansas City Center
Sun 01:39:39 PM 39.1661 -100.6147 81° East 561 646 41,000  Level Denver Center
Sun 01:40:41 PM 39.1939 -100.3969 81° East 555 639 41,000  Level Denver Center
Sun 01:41:43 PM 39.2158 -100.2078 81° East 557 641 41,000  Level Denver Center
Sun 01:44:06 PM 39.2744 -99.7172 81° East 555 639 41,000  Level Kansas City Center
Sun 01:44:49 PM 39.2900 -99.5864 81° East 551 634 41,000  Level Denver Center
Sun 01:45:52 PM 39.3108 -99.4014 82° East 546 628 41,000  Level Denver Center
Sun 01:46:54 PM 39.3350 -99.1853 82° East 546 628 41,000  Level Denver Center
Sun 01:48:58 PM 39.3800 -98.7906 81° East 542 624 41,000  Level Denver Center
Sun 01:50:12 PM 39.3994 -98.5969 83° East 543 625 41,000  Level Denver Center
Sun 01:51:20 PM 39.4283 -98.3264 82° East 543 625 41,000  Level Kansas City Center
Sun 01:52:22 PM 39.4481 -98.1372 82° East 542 624 41,000  Level Kansas City Center
Sun 01:55:28 PM 39.5067 -97.5511 83° East 545 627 41,000  Level Kansas City Center
Sun 01:56:29 PM 39.5261 -97.3567 83° East 546 628 41,000  Level Kansas City Center
Sun 01:57:31 PM 39.5494 -97.1231 83° East 550 633 41,000  Level Kansas City Center
Sun 01:58:33 PM 39.5678 -96.9281 83° East 548 631 41,000  Level Kansas City Center
Sun 01:59:35 PM 39.5853 -96.7364 83° East 548 631 41,000  Level Kansas City Center
Sun 02:00:37 PM 39.6047 -96.5186 83° East 543 625 41,000  Level Kansas City Center
Sun 02:03:43 PM 39.6553 -95.9283 83° East 545 627 41,000  Level Kansas City Center
Sun 02:04:45 PM 39.6706 -95.7403 84° East 546 628 41,000  Level Kansas City Center
Sun 02:05:47 PM 39.6881 -95.5181 84° East 549 632 41,000  Level Kansas City Center
Sun 02:06:49 PM 39.7031 -95.3275 84° East 551 634 41,000  Level Kansas City Center
Sun 02:08:53 PM 39.7339 -94.9136 84° East 551 634 41,000  Level Kansas City Center
Sun 02:09:00 PM 39.7121 -95.0497 83° East  Level FlightAware Approximate
Sun 02:09:55 PM 39.7481 -94.7225 84° East 552 635 41,000  Level Kansas City Center
Sun 02:11:57 PM 39.7764 -94.3244 85° East 554 638 41,000  Level Chicago Center
Sun 02:12:58 PM 39.7939 -94.0875 84° East 554 638 41,000  Level Chicago Center
Sun 02:14:00 PM 39.8067 -93.8906 85° East 552 635 41,000  Level Chicago Center
Sun 02:15:02 PM 39.8181 -93.6906 86° East 556 640 41,000  Level Chicago Center
Sun 02:16:04 PM 39.8314 -93.4917 85° East 559 643 41,000  Level Chicago Center
Sun 02:17:09 PM 39.8475 -93.2586 85° East 554 638 41,000  Level Kansas City Center
Sun 02:18:11 PM 39.8589 -93.0606 86° East 555 639 41,000  Level Kansas City Center
Sun 02:19:13 PM 39.8700 -92.8625 86° East 556 640 41,000  Level Kansas City Center
Sun 02:21:17 PM 39.8922 -92.4669 86° East 558 642 41,000 -194 Level Kansas City Center
Sun 02:22:19 PM 39.9036 -92.2314 86° East 556 640 40,400 -864 Descending Kansas City Center
Sun 02:25:20 PM 39.9333 -91.6350 90° East 561 646 37,500 -1,016 Descending Chicago Center
Sun 02:26:27 PM 39.9422 -91.3992 87° East 553 636 36,200 -1,665 Descending Kansas City Center
Sun 02:28:31 PM 39.9581 -91.0236 87° East 523 602 32,200 -1,968 Descending Kansas City Center
Sun 02:29:33 PM 39.9675 -90.8103 87° East 541 623 30,100 -2,022 Descending Kansas City Center
Sun 02:31:00 PM 39.9747 -90.5473 88° East  Level FlightAware Approximate
Sun 02:31:32 PM 39.9819 -90.4150 88° East 553 636 26,100  Level Chicago Center
Sun 02:32:38 PM 39.9892 -90.2158 87° East 550 633 24,000 -2,116 Descending Kansas City Center
Sun 02:34:42 PM 40.0014 -89.8369 87° East 530 610 19,400 -2,258 Descending Kansas City Center
Sun 02:35:44 PM 40.0075 -89.6236 88° East 505 581 17,000 -2,244 Descending Kansas City Center
Sun 02:36:45 PM 40.0133 -89.4517 87° East 489 563 14,800 -2,000 Descending Kansas City Center
Sun 02:37:47 PM 40.0172 -89.2897 88° East 465 535 12,900 -1,500 Descending Kansas City Center
Sun 02:38:49 PM 40.0208 -89.1431 88° East 425 489 11,700 -1,171 Descending Kansas City Center
Sun 02:39:50 PM 40.0242 -89.0039 88° East 396 456 10,500 -829 Descending Kansas City Center
Sun 02:40:52 PM 40.0283 -88.8778 87° East 361 415 10,000 -1,065 Descending Kansas City Center
Sun 02:41:54 PM 40.0297 -88.7444 89° East 318 366 8,300 -1,694 Descending Kansas City Center
Sun 02:42:56 PM 40.0333 -88.6356 87° East 307 353 6,500 -1,756 Descending Kansas City Center
Sun 02:43:57 PM 40.0353 -88.5336 89° East 295 339 4,700 -1,636 Descending Kansas City Center
Sun 02:44:57 PM 40.0367 -88.4303 89° East 276 318 3,200 -1,500 Descending Chicago Center
Sun 02:47:00 PM 40.0388 -88.2778 90° East  Level Estimated
Sun 02:54:00 PM 40.0388 -88.2778 90° East  Level Estimated
Sun 02:55:00 PM 40.0388 -88.2778 90° East  Level Estimated

Login

Don't have an account? Register now (free) for customized features, flight alerts, and more!